UAE209 OMDB-WSSS
Flight info
| Callsign | UAE209 |
|---|---|
| Flight time | N/A |
| Altitude | 39000 |
| Route | IVURO M677 LALDO B505 NADSO A777 VAXIM P307 PARAR N571 BIKEN/N0485F410 N571 GUNIP M630 NIREN Y511 TOPOR A464 ARAMA DCT TEBUN TEBUN1A |
| Aircraft | A359/H-SDE2E3GHIJ3J4J5LM1ORWXY/LB1D1 |
Departure
| Time | 2026-04-25 12:16 |
|---|---|
| Airport | Dubai International Airport (OMDB) |
Arrival
| Time | N/A |
|---|---|
| Airport | Singapore Changi Airport (WSSS) |
| Time | Latitude | Longitude | Altitude | Speed | Heading |
|---|---|---|---|---|---|
| 2026-04-25 11:11 | 25.24782 | 55.36514 | 28 ft | 0 kts | 211° |
| 2026-04-25 12:02 | 25.24807 | 55.36529 | 27 ft | 4 kts | 206° |
| 2026-04-25 12:02 | 25.24828 | 55.36541 | 27 ft | 4 kts | 217° |
| 2026-04-25 12:02 | 25.24840 | 55.36561 | 26 ft | 4 kts | 281° |
| 2026-04-25 12:03 | 25.24830 | 55.36588 | 26 ft | 4 kts | 300° |
| 2026-04-25 12:03 | 25.24824 | 55.36598 | 26 ft | 1 kts | 300° |
| 2026-04-25 12:03 | 25.24824 | 55.36599 | 26 ft | 0 kts | 300° |
| 2026-04-25 12:06 | 25.24830 | 55.36586 | 26 ft | 5 kts | 300° |
| 2026-04-25 12:07 | 25.24863 | 55.36523 | 28 ft | 14 kts | 300° |
| 2026-04-25 12:07 | 25.24924 | 55.36416 | 28 ft | 19 kts | 302° |
| 2026-04-25 12:07 | 25.24993 | 55.36291 | 28 ft | 19 kts | 301° |
| 2026-04-25 12:07 | 25.25064 | 55.36162 | 28 ft | 20 kts | 301° |
| 2026-04-25 12:08 | 25.25137 | 55.36031 | 28 ft | 20 kts | 302° |
| 2026-04-25 12:08 | 25.25211 | 55.35900 | 28 ft | 20 kts | 302° |
| 2026-04-25 12:08 | 25.25284 | 55.35766 | 28 ft | 21 kts | 300° |
| 2026-04-25 12:08 | 25.25359 | 55.35629 | 28 ft | 21 kts | 301° |
| 2026-04-25 12:09 | 25.25435 | 55.35491 | 28 ft | 21 kts | 302° |
| 2026-04-25 12:09 | 25.25514 | 55.35351 | 28 ft | 22 kts | 302° |
| 2026-04-25 12:09 | 25.25593 | 55.35209 | 28 ft | 21 kts | 301° |
| 2026-04-25 12:09 | 25.25679 | 55.35166 | 28 ft | 14 kts | 16° |
| 2026-04-25 12:10 | 25.25769 | 55.35219 | 27 ft | 15 kts | 31° |
| 2026-04-25 12:10 | 25.25864 | 55.35283 | 28 ft | 17 kts | 31° |
| 2026-04-25 12:10 | 25.25959 | 55.35359 | 28 ft | 17 kts | 49° |
| 2026-04-25 12:10 | 25.25991 | 55.35494 | 28 ft | 20 kts | 98° |
| 2026-04-25 12:11 | 25.25933 | 55.35633 | 28 ft | 20 kts | 121° |
| 2026-04-25 12:11 | 25.25856 | 55.35769 | 28 ft | 21 kts | 121° |
| 2026-04-25 12:11 | 25.25776 | 55.35912 | 28 ft | 22 kts | 122° |
| 2026-04-25 12:11 | 25.25692 | 55.36061 | 28 ft | 23 kts | 121° |
| 2026-04-25 12:12 | 25.25607 | 55.36217 | 28 ft | 24 kts | 121° |
| 2026-04-25 12:12 | 25.25549 | 55.36322 | 28 ft | 24 kts | 121° |
| 2026-04-25 12:12 | 25.25428 | 55.36541 | 28 ft | 26 kts | 121° |
| 2026-04-25 12:12 | 25.25334 | 55.36711 | 28 ft | 26 kts | 121° |
| 2026-04-25 12:13 | 25.25236 | 55.36885 | 28 ft | 27 kts | 121° |
| 2026-04-25 12:13 | 25.25137 | 55.37064 | 28 ft | 28 kts | 121° |
| 2026-04-25 12:13 | 25.25036 | 55.37247 | 28 ft | 28 kts | 121° |
| 2026-04-25 12:13 | 25.24933 | 55.37435 | 28 ft | 29 kts | 122° |
| 2026-04-25 12:14 | 25.24827 | 55.37625 | 28 ft | 29 kts | 121° |
| 2026-04-25 12:14 | 25.24733 | 55.37794 | 28 ft | 24 kts | 121° |
| 2026-04-25 12:14 | 25.24668 | 55.37933 | 28 ft | 15 kts | 91° |
| 2026-04-25 12:14 | 25.24738 | 55.37999 | 28 ft | 14 kts | 31° |
| 2026-04-25 12:15 | 25.24795 | 55.38033 | 28 ft | 3 kts | 3° |
| 2026-04-25 12:15 | 25.24802 | 55.38025 | 28 ft | 1 kts | 310° |
| 2026-04-25 12:15 | 25.24828 | 55.37980 | 28 ft | 27 kts | 303° |
| 2026-04-25 12:15 | 25.25047 | 55.37589 | 28 ft | 91 kts | 301° |
| 2026-04-25 12:16 | 25.25476 | 55.36817 | 28 ft | 143 kts | 301° |
| 2026-04-25 12:16 | 25.26047 | 55.35773 | 367 ft | 162 kts | 302° |
| 2026-04-25 12:16 | 25.26632 | 55.34724 | 1029 ft | 159 kts | 302° |
| 2026-04-25 12:16 | 25.27230 | 55.33665 | 1346 ft | 171 kts | 303° |
| 2026-04-25 12:17 | 25.27878 | 55.32508 | 1467 ft | 182 kts | 302° |
| 2026-04-25 12:17 | 25.28559 | 55.31280 | 1650 ft | 193 kts | 302° |
| 2026-04-25 12:17 | 25.29424 | 55.30103 | 1788 ft | 204 kts | 321° |
| 2026-04-25 12:17 | 25.30753 | 55.29489 | 1975 ft | 216 kts | 353° |
| 2026-04-25 12:18 | 25.32283 | 55.29452 | 2239 ft | 224 kts | 0° |
| 2026-04-25 12:18 | 25.33855 | 55.29516 | 2599 ft | 228 kts | 0° |
| 2026-04-25 12:18 | 25.35443 | 55.29580 | 3018 ft | 229 kts | 1° |
| 2026-04-25 12:18 | 25.37042 | 55.29780 | 3338 ft | 234 kts | 13° |
| 2026-04-25 12:19 | 25.39264 | 55.31444 | 3947 ft | 242 kts | 56° |
| 2026-04-25 12:19 | 25.39735 | 55.33867 | 4391 ft | 247 kts | 92° |
| 2026-04-25 12:19 | 25.39588 | 55.35769 | 4775 ft | 250 kts | 95° |
| 2026-04-25 12:20 | 25.39404 | 55.37702 | 5038 ft | 257 kts | 95° |
| 2026-04-25 12:20 | 25.39220 | 55.39715 | 5217 ft | 269 kts | 95° |
| 2026-04-25 12:20 | 25.39036 | 55.41813 | 5421 ft | 279 kts | 95° |
| 2026-04-25 12:20 | 25.38852 | 55.43974 | 5756 ft | 285 kts | 95° |
| 2026-04-25 12:21 | 25.38667 | 55.46173 | 6093 ft | 290 kts | 95° |
| 2026-04-25 12:21 | 25.38481 | 55.48397 | 6452 ft | 292 kts | 96° |
| 2026-04-25 12:21 | 25.38294 | 55.50636 | 6830 ft | 292 kts | 96° |
| 2026-04-25 12:21 | 25.38108 | 55.52879 | 7192 ft | 294 kts | 96° |
| 2026-04-25 12:22 | 25.37919 | 55.55148 | 7472 ft | 299 kts | 96° |
| 2026-04-25 12:22 | 25.37728 | 55.57437 | 7892 ft | 299 kts | 96° |
| 2026-04-25 12:22 | 25.37537 | 55.59720 | 8316 ft | 298 kts | 96° |
| 2026-04-25 12:22 | 25.37345 | 55.62014 | 8657 ft | 301 kts | 96° |
| 2026-04-25 12:23 | 25.37151 | 55.64326 | 9008 ft | 303 kts | 96° |
| 2026-04-25 12:23 | 25.36956 | 55.66650 | 9398 ft | 303 kts | 96° |
| 2026-04-25 12:23 | 25.36761 | 55.68972 | 9790 ft | 305 kts | 96° |
| 2026-04-25 12:23 | 25.36564 | 55.71315 | 10093 ft | 308 kts | 97° |
| 2026-04-25 12:24 | 25.36362 | 55.73699 | 10266 ft | 316 kts | 96° |
| 2026-04-25 12:24 | 25.36155 | 55.76144 | 10409 ft | 324 kts | 97° |
| 2026-04-25 12:24 | 25.35942 | 55.78655 | 10555 ft | 332 kts | 98° |
| 2026-04-25 12:24 | 25.35725 | 55.81195 | 10675 ft | 340 kts | 97° |
| 2026-04-25 12:25 | 25.35501 | 55.83826 | 10817 ft | 347 kts | 97° |
| 2026-04-25 12:25 | 25.35273 | 55.86506 | 10947 ft | 354 kts | 97° |
| 2026-04-25 12:25 | 25.35039 | 55.89242 | 11070 ft | 361 kts | 97° |
| 2026-04-25 12:25 | 25.34799 | 55.92024 | 11211 ft | 366 kts | 97° |
| 2026-04-25 12:26 | 25.34557 | 55.94844 | 11337 ft | 371 kts | 97° |
| 2026-04-25 12:26 | 25.34312 | 55.97710 | 11449 ft | 377 kts | 97° |
| 2026-04-25 12:26 | 25.34061 | 56.00610 | 11560 ft | 381 kts | 97° |
| 2026-04-25 12:26 | 25.33809 | 56.03542 | 11671 ft | 386 kts | 97° |
| 2026-04-25 12:27 | 25.33553 | 56.06513 | 11764 ft | 390 kts | 97° |
| 2026-04-25 12:27 | 25.33292 | 56.09504 | 11959 ft | 392 kts | 97° |
| 2026-04-25 12:27 | 25.33031 | 56.12499 | 12153 ft | 392 kts | 97° |
| 2026-04-25 12:27 | 25.32769 | 56.15515 | 12277 ft | 395 kts | 97° |
| 2026-04-25 12:28 | 25.32513 | 56.18533 | 12533 ft | 394 kts | 97° |
| 2026-04-25 12:28 | 25.32263 | 56.21549 | 12682 ft | 395 kts | 97° |
| 2026-04-25 12:28 | 25.32012 | 56.24580 | 12838 ft | 396 kts | 97° |
| 2026-04-25 12:28 | 25.31762 | 56.27606 | 13101 ft | 394 kts | 97° |
| 2026-04-25 12:29 | 25.31512 | 56.30631 | 13233 ft | 397 kts | 97° |
| 2026-04-25 12:29 | 25.31261 | 56.33659 | 13478 ft | 394 kts | 97° |
| 2026-04-25 12:29 | 25.31010 | 56.36670 | 13690 ft | 394 kts | 97° |
| 2026-04-25 12:29 | 25.30758 | 56.39689 | 13819 ft | 395 kts | 97° |
| 2026-04-25 12:30 | 25.30611 | 56.41695 | 13900 ft | 396 kts | 95° |
| 2026-04-25 12:30 | 25.30455 | 56.45781 | 14059 ft | 399 kts | 93° |
| 2026-04-25 12:30 | 25.30397 | 56.48848 | 14176 ft | 400 kts | 92° |
| 2026-04-25 12:30 | 25.30347 | 56.51926 | 14310 ft | 401 kts | 92° |
| 2026-04-25 12:31 | 25.30288 | 56.55012 | 14448 ft | 402 kts | 93° |
| 2026-04-25 12:31 | 25.30112 | 56.58093 | 14556 ft | 402 kts | 99° |
| 2026-04-25 12:31 | 25.29537 | 56.61101 | 14748 ft | 399 kts | 108° |
| 2026-04-25 12:31 | 25.28660 | 56.64009 | 14880 ft | 399 kts | 111° |
| 2026-04-25 12:32 | 25.27661 | 56.66872 | 15003 ft | 400 kts | 114° |
| 2026-04-25 12:32 | 25.26591 | 56.69716 | 15115 ft | 401 kts | 114° |